TimeCST,TemperatureF,Dew PointF,Humidity,Sea Level PressureIn,VisibilityMPH,Wind Direction,Wind SpeedMPH,Gust SpeedMPH,PrecipitationIn,Events,Conditions,WindDirDegrees,DateUTC
12:55 AM,48.0,37.2,66,30.22,10.0,NNE,3.5,-,N/A,,Overcast,20,2013-01-06 06:55:00
1:55 AM,46.8,37.9,71,30.21,10.0,NE,4.6,-,N/A,,Mostly Cloudy,50,2013-01-06 07:55:00
2:55 AM,47.3,38.1,70,30.23,10.0,NW,6.9,-,N/A,,Overcast,320,2013-01-06 08:55:00
3:55 AM,48.0,37.0,66,30.23,10.0,North,5.8,-,N/A,,Overcast,350,2013-01-06 09:55:00
4:55 AM,48.4,37.6,66,30.22,10.0,North,5.8,-,N/A,,Overcast,10,2013-01-06 10:55:00
5:55 AM,48.4,36.5,64,30.23,10.0,North,5.8,-,N/A,,Overcast,10,2013-01-06 11:55:00
6:55 AM,48.6,36.3,63,30.24,10.0,North,9.2,-,N/A,,Overcast,360,2013-01-06 12:55:00
7:55 AM,48.6,36.0,62,30.26,10.0,NE,3.5,-,N/A,,Overcast,40,2013-01-06 13:55:00
8:55 AM,49.1,36.7,62,30.25,10.0,NNE,10.4,-,N/A,,Overcast,20,2013-01-06 14:55:00
9:55 AM,51.4,36.9,58,30.26,10.0,NE,4.6,-,N/A,,Overcast,40,2013-01-06 15:55:00
10:55 AM,52.3,36.3,54,30.24,10.0,NNE,3.5,-,N/A,,Overcast,20,2013-01-06 16:55:00
11:55 AM,52.5,40.1,63,30.22,10.0,NNW,5.8,-,N/A,,Overcast,340,2013-01-06 17:55:00
12:27 PM,53.6,41.0,62,30.20,10.0,NNW,5.8,-,N/A,,Light Drizzle,340,2013-01-06 18:27:00
12:50 PM,53.6,42.8,67,30.19,10.0,North,3.5,-,N/A,,Mostly Cloudy,10,2013-01-06 18:50:00
12:54 PM,53.6,42.8,67,30.19,10.0,North,6.9,-,N/A,,Light Drizzle,350,2013-01-06 18:54:00
12:55 PM,53.2,41.7,65,30.19,10.0,North,6.9,-,0.00,,Light Drizzle,350,2013-01-06 18:55:00
1:05 PM,53.6,41.0,62,30.19,10.0,NNW,6.9,-,N/A,,Overcast,340,2013-01-06 19:05:00
1:55 PM,53.4,40.3,61,30.19,10.0,NNW,8.1,-,0.00,,Overcast,330,2013-01-06 19:55:00
2:00 PM,53.6,41.0,62,30.19,10.0,NNW,5.8,-,N/A,,Overcast,330,2013-01-06 20:00:00
2:11 PM,53.6,39.2,58,30.19,10.0,North,6.9,-,N/A,,Overcast,360,2013-01-06 20:11:00
2:18 PM,53.6,41.0,62,30.19,10.0,NNW,6.9,-,N/A,,Light Drizzle,340,2013-01-06 20:18:00
2:29 PM,53.6,41.0,62,30.18,10.0,North,5.8,-,N/A,,Overcast,360,2013-01-06 20:29:00
2:55 PM,53.2,40.5,62,30.18,10.0,NNE,3.5,-,0.00,,Overcast,30,2013-01-06 20:55:00
3:55 PM,53.4,41.7,65,30.19,10.0,Calm,Calm,-,N/A,,Mostly Cloudy,0,2013-01-06 21:55:00
4:55 PM,51.8,42.1,69,30.19,10.0,NW,4.6,-,N/A,,Mostly Cloudy,320,2013-01-06 22:55:00
5:55 PM,51.4,41.9,70,30.20,10.0,NNW,3.5,-,N/A,,Overcast,330,2013-01-06 23:55:00
6:55 PM,49.1,42.3,77,30.22,10.0,NNW,5.8,-,N/A,,Clear,330,2013-01-07 00:55:00
7:55 PM,47.1,41.9,82,30.25,10.0,NW,3.5,-,N/A,,Clear,320,2013-01-07 01:55:00
8:55 PM,45.7,41.5,85,30.26,10.0,NNW,4.6,-,N/A,,Partly Cloudy,330,2013-01-07 02:55:00
9:55 PM,44.8,40.6,85,30.27,10.0,North,5.8,-,N/A,,Clear,350,2013-01-07 03:55:00
10:55 PM,44.6,39.6,82,30.27,10.0,North,9.2,-,N/A,,Clear,360,2013-01-07 04:55:00
11:55 PM,43.5,38.7,83,30.28,10.0,North,5.8,-,N/A,,Clear,350,2013-01-07 05:55:00